sensor_id;sensor_type;location;lat;lon;timestamp;temperature;humidity
13326;DHT22;6732;51.044;3.746;2022-08-25T00:02:01;23.30;99.90
13326;DHT22;6732;51.044;3.746;2022-08-25T00:04:28;23.30;99.90
13326;DHT22;6732;51.044;3.746;2022-08-25T00:06:54;23.30;99.90
13326;DHT22;6732;51.044;3.746;2022-08-25T00:09:23;23.30;99.90
13326;DHT22;6732;51.044;3.746;2022-08-25T00:11:50;23.30;99.90
13326;DHT22;6732;51.044;3.746;2022-08-25T00:14:23;23.20;99.90
13326;DHT22;6732;51.044;3.746;2022-08-25T00:16:49;23.30;99.90
13326;DHT22;6732;51.044;3.746;2022-08-25T00:19:20;23.20;99.90
13326;DHT22;6732;51.044;3.746;2022-08-25T00:21:47;23.20;99.90
13326;DHT22;6732;51.044;3.746;2022-08-25T00:24:16;23.20;99.90
13326;DHT22;6732;51.044;3.746;2022-08-25T00:26:45;23.20;99.90
13326;DHT22;6732;51.044;3.746;2022-08-25T00:29:12;23.20;99.90
13326;DHT22;6732;51.044;3.746;2022-08-25T00:31:39;23.20;99.90
13326;DHT22;6732;51.044;3.746;2022-08-25T00:34:09;23.20;99.90
13326;DHT22;6732;51.044;3.746;2022-08-25T00:36:36;23.10;99.90
13326;DHT22;6732;51.044;3.746;2022-08-25T00:39:03;23.20;99.90
13326;DHT22;6732;51.044;3.746;2022-08-25T00:41:29;23.10;99.90
13326;DHT22;6732;51.044;3.746;2022-08-25T00:43:58;23.10;99.90
13326;DHT22;6732;51.044;3.746;2022-08-25T00:46:32;23.10;99.90
13326;DHT22;6732;51.044;3.746;2022-08-25T00:49:07;23.10;99.90
13326;DHT22;6732;51.044;3.746;2022-08-25T00:51:50;23.10;99.90
13326;DHT22;6732;51.044;3.746;2022-08-25T00:54:24;23.10;99.90
13326;DHT22;6732;51.044;3.746;2022-08-25T00:56:52;23.10;99.90
13326;DHT22;6732;51.044;3.746;2022-08-25T00:59:22;23.00;99.90
13326;DHT22;6732;51.044;3.746;2022-08-25T01:01:49;23.00;99.90
13326;DHT22;6732;51.044;3.746;2022-08-25T01:04:16;23.00;99.90
13326;DHT22;6732;51.044;3.746;2022-08-25T01:06:43;23.00;99.90
13326;DHT22;6732;51.044;3.746;2022-08-25T01:09:11;23.00;99.90
13326;DHT22;6732;51.044;3.746;2022-08-25T01:11:40;23.00;99.90
13326;DHT22;6732;51.044;3.746;2022-08-25T01:14:06;23.00;99.90
13326;DHT22;6732;51.044;3.746;2022-08-25T01:16:35;22.90;99.90
13326;DHT22;6732;51.044;3.746;2022-08-25T01:19:04;23.00;99.90
13326;DHT22;6732;51.044;3.746;2022-08-25T01:21:36;22.90;99.90
13326;DHT22;6732;51.044;3.746;2022-08-25T01:24:03;22.90;99.90
13326;DHT22;6732;51.044;3.746;2022-08-25T01:26:32;22.90;99.90
13326;DHT22;6732;51.044;3.746;2022-08-25T01:29:00;22.90;99.90
13326;DHT22;6732;51.044;3.746;2022-08-25T01:31:45;22.90;99.90
13326;DHT22;6732;51.044;3.746;2022-08-25T01:34:12;22.90;99.90
13326;DHT22;6732;51.044;3.746;2022-08-25T01:36:40;22.90;99.90
13326;DHT22;6732;51.044;3.746;2022-08-25T01:39:06;22.80;99.90
13326;DHT22;6732;51.044;3.746;2022-08-25T01:43:59;22.80;99.90
13326;DHT22;6732;51.044;3.746;2022-08-25T01:46:26;22.80;99.90
13326;DHT22;6732;51.044;3.746;2022-08-25T01:48:52;22.80;99.90
13326;DHT22;6732;51.044;3.746;2022-08-25T01:51:20;22.80;99.90
13326;DHT22;6732;51.044;3.746;2022-08-25T01:53:48;22.80;99.90
13326;DHT22;6732;51.044;3.746;2022-08-25T01:56:16;22.80;99.90
13326;DHT22;6732;51.044;3.746;2022-08-25T01:58:45;22.70;99.90
13326;DHT22;6732;51.044;3.746;2022-08-25T02:01:15;22.70;99.90
13326;DHT22;6732;51.044;3.746;2022-08-25T02:03:45;22.70;99.90
13326;DHT22;6732;51.044;3.746;2022-08-25T02:06:17;22.70;99.90
13326;DHT22;6732;51.044;3.746;2022-08-25T02:08:44;22.70;99.90
13326;DHT22;6732;51.044;3.746;2022-08-25T02:11:13;22.70;99.90
13326;DHT22;6732;51.044;3.746;2022-08-25T02:13:47;22.70;99.90
13326;DHT22;6732;51.044;3.746;2022-08-25T02:16:17;22.70;99.90
13326;DHT22;6732;51.044;3.746;2022-08-25T02:18:46;22.60;99.90
13326;DHT22;6732;51.044;3.746;2022-08-25T02:21:13;22.70;99.90
13326;DHT22;6732;51.044;3.746;2022-08-25T02:23:39;22.60;99.90
13326;DHT22;6732;51.044;3.746;2022-08-25T02:26:07;22.60;99.90
13326;DHT22;6732;51.044;3.746;2022-08-25T02:28:33;22.60;99.90
13326;DHT22;6732;51.044;3.746;2022-08-25T02:30:59;22.60;99.90
13326;DHT22;6732;51.044;3.746;2022-08-25T02:33:25;22.60;99.90
13326;DHT22;6732;51.044;3.746;2022-08-25T02:35:51;22.50;99.90
13326;DHT22;6732;51.044;3.746;2022-08-25T02:38:17;22.50;99.90
13326;DHT22;6732;51.044;3.746;2022-08-25T02:40:43;22.50;99.90
13326;DHT22;6732;51.044;3.746;2022-08-25T02:43:09;22.50;99.90
13326;DHT22;6732;51.044;3.746;2022-08-25T02:45:35;22.50;99.90
13326;DHT22;6732;51.044;3.746;2022-08-25T02:48:01;22.50;99.90
13326;DHT22;6732;51.044;3.746;2022-08-25T02:50:28;22.50;99.90
13326;DHT22;6732;51.044;3.746;2022-08-25T02:52:54;22.50;99.90
13326;DHT22;6732;51.044;3.746;2022-08-25T02:55:20;22.40;99.90
13326;DHT22;6732;51.044;3.746;2022-08-25T02:57:46;22.40;99.90
13326;DHT22;6732;51.044;3.746;2022-08-25T03:00:14;22.40;99.90
13326;DHT22;6732;51.044;3.746;2022-08-25T03:02:41;22.40;99.90
13326;DHT22;6732;51.044;3.746;2022-08-25T03:05:08;22.40;99.90
13326;DHT22;6732;51.044;3.746;2022-08-25T03:07:35;22.40;99.90
13326;DHT22;6732;51.044;3.746;2022-08-25T03:10:12;22.40;99.90
13326;DHT22;6732;51.044;3.746;2022-08-25T03:12:39;22.40;99.90
13326;DHT22;6732;51.044;3.746;2022-08-25T03:15:09;22.30;99.90
13326;DHT22;6732;51.044;3.746;2022-08-25T03:17:35;22.30;99.90
13326;DHT22;6732;51.044;3.746;2022-08-25T03:20:04;22.30;99.90
13326;DHT22;6732;51.044;3.746;2022-08-25T03:22:30;22.30;99.90
13326;DHT22;6732;51.044;3.746;2022-08-25T03:24:56;22.30;99.90
13326;DHT22;6732;51.044;3.746;2022-08-25T03:27:42;22.30;99.90
13326;DHT22;6732;51.044;3.746;2022-08-25T03:30:09;22.30;99.90
13326;DHT22;6732;51.044;3.746;2022-08-25T03:32:35;22.30;99.90
13326;DHT22;6732;51.044;3.746;2022-08-25T03:35:01;22.20;99.90
13326;DHT22;6732;51.044;3.746;2022-08-25T03:37:27;22.20;99.90
13326;DHT22;6732;51.044;3.746;2022-08-25T03:39:53;22.20;99.90
13326;DHT22;6732;51.044;3.746;2022-08-25T03:42:19;22.20;99.90
13326;DHT22;6732;51.044;3.746;2022-08-25T03:44:45;22.20;99.90
13326;DHT22;6732;51.044;3.746;2022-08-25T03:47:11;22.20;99.90
13326;DHT22;6732;51.044;3.746;2022-08-25T03:49:37;22.20;99.90
13326;DHT22;6732;51.044;3.746;2022-08-25T03:52:03;22.20;99.90
13326;DHT22;6732;51.044;3.746;2022-08-25T03:54:29;22.10;99.90
13326;DHT22;6732;51.044;3.746;2022-08-25T03:56:55;22.10;99.90
13326;DHT22;6732;51.044;3.746;2022-08-25T03:59:21;22.10;99.90
13326;DHT22;6732;51.044;3.746;2022-08-25T04:01:47;22.10;99.90
13326;DHT22;6732;51.044;3.746;2022-08-25T04:04:14;22.10;99.90
13326;DHT22;6732;51.044;3.746;2022-08-25T04:06:42;22.10;99.90
13326;DHT22;6732;51.044;3.746;2022-08-25T04:09:10;22.10;99.90
13326;DHT22;6732;51.044;3.746;2022-08-25T04:11:36;22.10;99.90
13326;DHT22;6732;51.044;3.746;2022-08-25T04:14:02;22.10;99.90
13326;DHT22;6732;51.044;3.746;2022-08-25T04:16:32;22.10;99.90
13326;DHT22;6732;51.044;3.746;2022-08-25T04:19:00;22.00;99.90
13326;DHT22;6732;51.044;3.746;2022-08-25T04:21:27;22.00;99.90
13326;DHT22;6732;51.044;3.746;2022-08-25T04:23:54;22.00;99.90
13326;DHT22;6732;51.044;3.746;2022-08-25T04:26:31;22.00;99.90
13326;DHT22;6732;51.044;3.746;2022-08-25T04:28:59;22.00;99.90
13326;DHT22;6732;51.044;3.746;2022-08-25T04:31:26;22.00;99.90
13326;DHT22;6732;51.044;3.746;2022-08-25T04:33:53;22.00;99.90
13326;DHT22;6732;51.044;3.746;2022-08-25T04:36:19;22.00;99.90
13326;DHT22;6732;51.044;3.746;2022-08-25T04:38:46;21.90;99.90
13326;DHT22;6732;51.044;3.746;2022-08-25T04:41:13;21.90;99.90
13326;DHT22;6732;51.044;3.746;2022-08-25T04:43:41;21.90;99.90
13326;DHT22;6732;51.044;3.746;2022-08-25T04:46:11;21.90;99.90
13326;DHT22;6732;51.044;3.746;2022-08-25T04:48:44;21.90;99.90
13326;DHT22;6732;51.044;3.746;2022-08-25T04:51:13;21.90;99.90
13326;DHT22;6732;51.044;3.746;2022-08-25T04:53:40;21.90;99.90
13326;DHT22;6732;51.044;3.746;2022-08-25T04:56:12;21.90;99.90
13326;DHT22;6732;51.044;3.746;2022-08-25T04:58:39;21.90;99.90
13326;DHT22;6732;51.044;3.746;2022-08-25T05:01:08;21.90;99.90
13326;DHT22;6732;51.044;3.746;2022-08-25T05:03:35;21.80;99.90
13326;DHT22;6732;51.044;3.746;2022-08-25T05:06:02;21.80;99.90
13326;DHT22;6732;51.044;3.746;2022-08-25T05:08:30;21.80;99.90
13326;DHT22;6732;51.044;3.746;2022-08-25T05:10:56;21.80;99.90
13326;DHT22;6732;51.044;3.746;2022-08-25T05:13:23;21.80;99.90
13326;DHT22;6732;51.044;3.746;2022-08-25T05:15:54;21.80;99.90
13326;DHT22;6732;51.044;3.746;2022-08-25T05:18:22;21.80;99.90
13326;DHT22;6732;51.044;3.746;2022-08-25T05:20:49;21.80;99.90
13326;DHT22;6732;51.044;3.746;2022-08-25T05:23:16;21.80;99.90
13326;DHT22;6732;51.044;3.746;2022-08-25T05:25:42;21.80;99.90
13326;DHT22;6732;51.044;3.746;2022-08-25T05:28:09;21.80;99.90
13326;DHT22;6732;51.044;3.746;2022-08-25T05:30:39;21.80;99.90
13326;DHT22;6732;51.044;3.746;2022-08-25T05:33:06;21.70;99.90
13326;DHT22;6732;51.044;3.746;2022-08-25T05:35:32;21.80;99.90
13326;DHT22;6732;51.044;3.746;2022-08-25T05:37:58;21.70;99.90
13326;DHT22;6732;51.044;3.746;2022-08-25T05:40:24;21.70;99.90
13326;DHT22;6732;51.044;3.746;2022-08-25T05:42:50;21.70;99.90
13326;DHT22;6732;51.044;3.746;2022-08-25T05:45:16;21.70;99.90
13326;DHT22;6732;51.044;3.746;2022-08-25T05:47:42;21.70;99.90
13326;DHT22;6732;51.044;3.746;2022-08-25T05:50:09;21.70;99.90
13326;DHT22;6732;51.044;3.746;2022-08-25T05:52:35;21.70;99.90
13326;DHT22;6732;51.044;3.746;2022-08-25T05:55:01;21.70;99.90
13326;DHT22;6732;51.044;3.746;2022-08-25T05:57:28;21.80;99.90
13326;DHT22;6732;51.044;3.746;2022-08-25T05:59:54;21.80;99.90
13326;DHT22;6732;51.044;3.746;2022-08-25T06:02:20;21.80;99.90
13326;DHT22;6732;51.044;3.746;2022-08-25T06:05:04;21.80;99.90
13326;DHT22;6732;51.044;3.746;2022-08-25T06:07:30;21.80;99.90
13326;DHT22;6732;51.044;3.746;2022-08-25T06:09:56;21.80;99.90
13326;DHT22;6732;51.044;3.746;2022-08-25T06:12:22;21.80;99.90
13326;DHT22;6732;51.044;3.746;2022-08-25T06:14:48;21.80;99.90
13326;DHT22;6732;51.044;3.746;2022-08-25T06:17:15;21.80;99.90
13326;DHT22;6732;51.044;3.746;2022-08-25T06:19:42;21.80;99.90
13326;DHT22;6732;51.044;3.746;2022-08-25T06:22:09;21.80;99.90
13326;DHT22;6732;51.044;3.746;2022-08-25T06:24:35;21.80;99.90
13326;DHT22;6732;51.044;3.746;2022-08-25T06:27:01;21.80;99.90
13326;DHT22;6732;51.044;3.746;2022-08-25T06:29:26;21.80;99.90
13326;DHT22;6732;51.044;3.746;2022-08-25T06:31:52;21.80;99.90
13326;DHT22;6732;51.044;3.746;2022-08-25T06:34:18;21.80;99.90
13326;DHT22;6732;51.044;3.746;2022-08-25T06:36:44;21.90;99.90
13326;DHT22;6732;51.044;3.746;2022-08-25T06:39:10;21.90;99.90
13326;DHT22;6732;51.044;3.746;2022-08-25T06:41:36;21.90;99.90
13326;DHT22;6732;51.044;3.746;2022-08-25T06:44:03;21.90;99.90
13326;DHT22;6732;51.044;3.746;2022-08-25T06:46:29;21.90;99.90
13326;DHT22;6732;51.044;3.746;2022-08-25T06:48:56;21.90;99.90
13326;DHT22;6732;51.044;3.746;2022-08-25T06:51:24;22.00;99.90
13326;DHT22;6732;51.044;3.746;2022-08-25T06:53:51;22.00;99.90
13326;DHT22;6732;51.044;3.746;2022-08-25T06:56:19;22.00;99.90
13326;DHT22;6732;51.044;3.746;2022-08-25T06:58:46;22.00;99.90
13326;DHT22;6732;51.044;3.746;2022-08-25T07:01:24;22.00;99.90
13326;DHT22;6732;51.044;3.746;2022-08-25T07:03:53;22.00;99.90
13326;DHT22;6732;51.044;3.746;2022-08-25T07:06:22;22.00;99.90
13326;DHT22;6732;51.044;3.746;2022-08-25T07:08:48;22.00;99.90
13326;DHT22;6732;51.044;3.746;2022-08-25T07:11:15;22.00;99.90
13326;DHT22;6732;51.044;3.746;2022-08-25T07:13:41;22.10;99.90
13326;DHT22;6732;51.044;3.746;2022-08-25T07:16:07;22.10;99.90
13326;DHT22;6732;51.044;3.746;2022-08-25T07:18:35;22.10;99.90
13326;DHT22;6732;51.044;3.746;2022-08-25T07:21:01;22.10;99.90
13326;DHT22;6732;51.044;3.746;2022-08-25T07:23:27;22.10;99.90
13326;DHT22;6732;51.044;3.746;2022-08-25T07:25:54;22.10;99.90
13326;DHT22;6732;51.044;3.746;2022-08-25T07:28:22;22.10;99.90
13326;DHT22;6732;51.044;3.746;2022-08-25T07:30:49;22.20;99.90
13326;DHT22;6732;51.044;3.746;2022-08-25T07:33:16;22.20;99.90
13326;DHT22;6732;51.044;3.746;2022-08-25T07:35:42;22.20;99.90
13326;DHT22;6732;51.044;3.746;2022-08-25T07:38:08;22.20;99.90
13326;DHT22;6732;51.044;3.746;2022-08-25T07:40:37;22.20;99.90
13326;DHT22;6732;51.044;3.746;2022-08-25T07:43:06;22.20;99.90
13326;DHT22;6732;51.044;3.746;2022-08-25T07:45:35;22.30;99.90
13326;DHT22;6732;51.044;3.746;2022-08-25T07:48:10;22.30;99.90
13326;DHT22;6732;51.044;3.746;2022-08-25T07:50:40;22.30;99.90
13326;DHT22;6732;51.044;3.746;2022-08-25T07:53:08;22.30;99.90
13326;DHT22;6732;51.044;3.746;2022-08-25T07:55:34;22.30;99.90
13326;DHT22;6732;51.044;3.746;2022-08-25T07:58:05;22.30;99.90
13326;DHT22;6732;51.044;3.746;2022-08-25T08:00:33;22.30;99.90
13326;DHT22;6732;51.044;3.746;2022-08-25T08:03:03;22.40;99.90
13326;DHT22;6732;51.044;3.746;2022-08-25T08:05:30;22.40;99.90
13326;DHT22;6732;51.044;3.746;2022-08-25T08:07:56;22.40;99.90
13326;DHT22;6732;51.044;3.746;2022-08-25T08:10:22;22.40;99.90
13326;DHT22;6732;51.044;3.746;2022-08-25T08:12:48;22.40;99.90
13326;DHT22;6732;51.044;3.746;2022-08-25T08:15:14;22.50;99.90
13326;DHT22;6732;51.044;3.746;2022-08-25T08:17:40;22.50;99.90
13326;DHT22;6732;51.044;3.746;2022-08-25T08:20:08;22.50;99.90
13326;DHT22;6732;51.044;3.746;2022-08-25T08:22:37;22.60;99.90
13326;DHT22;6732;51.044;3.746;2022-08-25T08:25:04;22.60;99.90
13326;DHT22;6732;51.044;3.746;2022-08-25T08:27:31;22.60;99.90
13326;DHT22;6732;51.044;3.746;2022-08-25T08:29:57;22.70;99.90
13326;DHT22;6732;51.044;3.746;2022-08-25T08:32:23;22.70;99.90
13326;DHT22;6732;51.044;3.746;2022-08-25T08:34:49;22.70;99.90
13326;DHT22;6732;51.044;3.746;2022-08-25T08:37:15;22.80;99.90
13326;DHT22;6732;51.044;3.746;2022-08-25T08:39:41;22.80;99.90
13326;DHT22;6732;51.044;3.746;2022-08-25T08:48:09;22.90;99.90
13326;DHT22;6732;51.044;3.746;2022-08-25T08:53:10;23.00;99.90
13326;DHT22;6732;51.044;3.746;2022-08-25T08:55:42;23.00;99.90
13326;DHT22;6732;51.044;3.746;2022-08-25T08:58:31;23.10;99.90
13326;DHT22;6732;51.044;3.746;2022-08-25T09:00:59;23.10;99.90
13326;DHT22;6732;51.044;3.746;2022-08-25T09:06:01;23.20;99.90
13326;DHT22;6732;51.044;3.746;2022-08-25T09:08:28;23.20;99.90
13326;DHT22;6732;51.044;3.746;2022-08-25T09:11:15;23.30;99.90
13326;DHT22;6732;51.044;3.746;2022-08-25T09:16:48;23.40;99.90
13326;DHT22;6732;51.044;3.746;2022-08-25T09:22:27;23.50;99.90
13326;DHT22;6732;51.044;3.746;2022-08-25T09:25:25;23.50;99.90
13326;DHT22;6732;51.044;3.746;2022-08-25T09:30:21;23.60;99.90
13326;DHT22;6732;51.044;3.746;2022-08-25T09:32:52;23.70;99.90
13326;DHT22;6732;51.044;3.746;2022-08-25T09:35:34;23.70;99.90
13326;DHT22;6732;51.044;3.746;2022-08-25T09:38:06;23.80;99.90
13326;DHT22;6732;51.044;3.746;2022-08-25T09:40:37;23.90;99.90
13326;DHT22;6732;51.044;3.746;2022-08-25T09:46:15;23.90;99.90
13326;DHT22;6732;51.044;3.746;2022-08-25T09:51:34;24.10;99.90
13326;DHT22;6732;51.044;3.746;2022-08-25T09:54:14;24.20;99.90
13326;DHT22;6732;51.044;3.746;2022-08-25T09:59:32;24.20;99.90
13326;DHT22;6732;51.044;3.746;2022-08-25T10:02:25;24.30;99.90
13326;DHT22;6732;51.044;3.746;2022-08-25T10:04:51;24.40;99.90
13326;DHT22;6732;51.044;3.746;2022-08-25T10:09:59;24.50;99.90
13326;DHT22;6732;51.044;3.746;2022-08-25T10:12:35;24.60;99.90
13326;DHT22;6732;51.044;3.746;2022-08-25T10:15:16;24.60;99.90
13326;DHT22;6732;51.044;3.746;2022-08-25T10:17:43;24.70;99.90
13326;DHT22;6732;51.044;3.746;2022-08-25T10:22:36;24.70;99.90
13326;DHT22;6732;51.044;3.746;2022-08-25T10:25:03;24.80;99.90
13326;DHT22;6732;51.044;3.746;2022-08-25T10:27:39;24.80;99.90
13326;DHT22;6732;51.044;3.746;2022-08-25T10:38:45;25.00;99.60
13326;DHT22;6732;51.044;3.746;2022-08-25T10:44:32;25.10;98.50
13326;DHT22;6732;51.044;3.746;2022-08-25T10:56:25;25.30;98.70
13326;DHT22;6732;51.044;3.746;2022-08-25T11:04:23;25.40;99.10
13326;DHT22;6732;51.044;3.746;2022-08-25T11:09:40;25.40;99.20
13326;DHT22;6732;51.044;3.746;2022-08-25T11:12:09;25.50;98.60
13326;DHT22;6732;51.044;3.746;2022-08-25T11:14:40;25.50;98.60
13326;DHT22;6732;51.044;3.746;2022-08-25T11:17:24;25.50;98.60
13326;DHT22;6732;51.044;3.746;2022-08-25T11:19:56;25.50;98.60
13326;DHT22;6732;51.044;3.746;2022-08-25T11:22:33;25.60;98.90
13326;DHT22;6732;51.044;3.746;2022-08-25T11:25:33;25.60;99.10
13326;DHT22;6732;51.044;3.746;2022-08-25T11:30:45;25.60;99.00
13326;DHT22;6732;51.044;3.746;2022-08-25T11:33:13;25.60;99.10
13326;DHT22;6732;51.044;3.746;2022-08-25T11:35:45;25.60;99.10
13326;DHT22;6732;51.044;3.746;2022-08-25T11:49:46;25.80;98.90
13326;DHT22;6732;51.044;3.746;2022-08-25T11:57:47;25.90;99.60
13326;DHT22;6732;51.044;3.746;2022-08-25T12:00:34;25.90;99.40
13326;DHT22;6732;51.044;3.746;2022-08-25T12:06:21;26.00;99.30
13326;DHT22;6732;51.044;3.746;2022-08-25T12:27:30;26.10;99.40
13326;DHT22;6732;51.044;3.746;2022-08-25T12:30:12;26.10;99.50
13326;DHT22;6732;51.044;3.746;2022-08-25T12:41:15;26.20;99.90
13326;DHT22;6732;51.044;3.746;2022-08-25T12:43:46;26.20;99.90
13326;DHT22;6732;51.044;3.746;2022-08-25T12:48:58;26.30;99.90
13326;DHT22;6732;51.044;3.746;2022-08-25T12:51:52;26.30;99.90
13326;DHT22;6732;51.044;3.746;2022-08-25T12:59:41;26.40;99.90
13326;DHT22;6732;51.044;3.746;2022-08-25T13:05:26;26.40;99.90
13326;DHT22;6732;51.044;3.746;2022-08-25T13:10:47;26.40;99.90
13326;DHT22;6732;51.044;3.746;2022-08-25T13:16:23;26.50;99.90
13326;DHT22;6732;51.044;3.746;2022-08-25T13:18:51;26.50;99.90
13326;DHT22;6732;51.044;3.746;2022-08-25T13:23:52;26.50;99.90
13326;DHT22;6732;51.044;3.746;2022-08-25T13:26:30;26.50;99.90
13326;DHT22;6732;51.044;3.746;2022-08-25T13:29:01;26.50;99.90
13326;DHT22;6732;51.044;3.746;2022-08-25T13:31:28;26.50;99.90
13326;DHT22;6732;51.044;3.746;2022-08-25T13:34:07;26.50;99.90
13326;DHT22;6732;51.044;3.746;2022-08-25T13:36:45;26.50;99.90
13326;DHT22;6732;51.044;3.746;2022-08-25T13:39:31;26.50;99.90
13326;DHT22;6732;51.044;3.746;2022-08-25T13:42:03;26.50;99.90
13326;DHT22;6732;51.044;3.746;2022-08-25T13:44:35;26.50;99.90
13326;DHT22;6732;51.044;3.746;2022-08-25T13:47:15;26.50;99.90
13326;DHT22;6732;51.044;3.746;2022-08-25T13:49:43;26.50;99.90
13326;DHT22;6732;51.044;3.746;2022-08-25T13:52:27;26.50;99.90
13326;DHT22;6732;51.044;3.746;2022-08-25T13:54:58;26.50;99.90
13326;DHT22;6732;51.044;3.746;2022-08-25T13:57:27;26.60;99.90
13326;DHT22;6732;51.044;3.746;2022-08-25T14:00:04;26.60;99.90
13326;DHT22;6732;51.044;3.746;2022-08-25T14:02:47;26.60;99.90
13326;DHT22;6732;51.044;3.746;2022-08-25T14:05:27;26.60;99.90
13326;DHT22;6732;51.044;3.746;2022-08-25T14:07:55;26.60;99.90
13326;DHT22;6732;51.044;3.746;2022-08-25T14:13:14;26.60;99.90
13326;DHT22;6732;51.044;3.746;2022-08-25T14:15:43;26.60;99.90
13326;DHT22;6732;51.044;3.746;2022-08-25T14:18:17;26.60;99.90
13326;DHT22;6732;51.044;3.746;2022-08-25T14:20:47;26.60;99.90
13326;DHT22;6732;51.044;3.746;2022-08-25T14:23:20;26.60;99.90
13326;DHT22;6732;51.044;3.746;2022-08-25T14:25:52;26.60;99.90
13326;DHT22;6732;51.044;3.746;2022-08-25T14:28:21;26.60;99.90
13326;DHT22;6732;51.044;3.746;2022-08-25T14:30:53;26.60;99.90
13326;DHT22;6732;51.044;3.746;2022-08-25T14:33:24;26.50;99.90
13326;DHT22;6732;51.044;3.746;2022-08-25T14:35:52;26.60;99.90
13326;DHT22;6732;51.044;3.746;2022-08-25T14:38:19;26.50;99.90
13326;DHT22;6732;51.044;3.746;2022-08-25T14:40:46;26.50;99.90
13326;DHT22;6732;51.044;3.746;2022-08-25T14:43:12;26.50;99.90
13326;DHT22;6732;51.044;3.746;2022-08-25T14:45:41;26.50;99.90
13326;DHT22;6732;51.044;3.746;2022-08-25T14:48:12;26.50;99.90
13326;DHT22;6732;51.044;3.746;2022-08-25T14:50:39;26.50;99.90
13326;DHT22;6732;51.044;3.746;2022-08-25T14:53:07;26.50;99.90
13326;DHT22;6732;51.044;3.746;2022-08-25T14:55:33;26.50;99.90
13326;DHT22;6732;51.044;3.746;2022-08-25T14:57:59;26.40;99.90
13326;DHT22;6732;51.044;3.746;2022-08-25T15:00:25;26.40;99.90
13326;DHT22;6732;51.044;3.746;2022-08-25T15:02:51;26.40;99.90
13326;DHT22;6732;51.044;3.746;2022-08-25T15:05:21;26.40;99.90
13326;DHT22;6732;51.044;3.746;2022-08-25T15:07:50;26.40;99.90
13326;DHT22;6732;51.044;3.746;2022-08-25T15:10:35;26.40;99.90
13326;DHT22;6732;51.044;3.746;2022-08-25T15:13:01;26.40;99.90
13326;DHT22;6732;51.044;3.746;2022-08-25T15:15:27;26.30;99.90
13326;DHT22;6732;51.044;3.746;2022-08-25T15:17:53;26.30;99.90
13326;DHT22;6732;51.044;3.746;2022-08-25T15:20:20;26.30;99.90
13326;DHT22;6732;51.044;3.746;2022-08-25T15:22:46;26.30;99.90
13326;DHT22;6732;51.044;3.746;2022-08-25T15:25:13;26.30;99.90
13326;DHT22;6732;51.044;3.746;2022-08-25T15:27:39;26.30;99.90
13326;DHT22;6732;51.044;3.746;2022-08-25T15:30:06;26.30;99.90
13326;DHT22;6732;51.044;3.746;2022-08-25T15:32:32;26.30;99.90
13326;DHT22;6732;51.044;3.746;2022-08-25T15:34:58;26.30;99.90
13326;DHT22;6732;51.044;3.746;2022-08-25T15:37:25;26.30;99.90
13326;DHT22;6732;51.044;3.746;2022-08-25T15:39:51;26.20;99.90
13326;DHT22;6732;51.044;3.746;2022-08-25T15:42:17;26.20;99.90
13326;DHT22;6732;51.044;3.746;2022-08-25T15:44:44;26.20;99.90
13326;DHT22;6732;51.044;3.746;2022-08-25T15:47:10;26.20;99.90
13326;DHT22;6732;51.044;3.746;2022-08-25T15:49:36;26.20;99.90
13326;DHT22;6732;51.044;3.746;2022-08-25T15:52:02;26.20;99.90
13326;DHT22;6732;51.044;3.746;2022-08-25T15:54:30;26.20;99.90
13326;DHT22;6732;51.044;3.746;2022-08-25T15:56:57;26.20;99.90
13326;DHT22;6732;51.044;3.746;2022-08-25T15:59:24;26.20;99.90
13326;DHT22;6732;51.044;3.746;2022-08-25T16:01:50;26.20;99.90
13326;DHT22;6732;51.044;3.746;2022-08-25T16:04:22;26.10;99.90
13326;DHT22;6732;51.044;3.746;2022-08-25T16:06:50;26.10;99.90
13326;DHT22;6732;51.044;3.746;2022-08-25T16:09:16;26.10;99.90
13326;DHT22;6732;51.044;3.746;2022-08-25T16:11:43;26.10;99.90
13326;DHT22;6732;51.044;3.746;2022-08-25T16:14:09;26.10;99.90
13326;DHT22;6732;51.044;3.746;2022-08-25T16:16:37;26.00;99.90
13326;DHT22;6732;51.044;3.746;2022-08-25T16:19:03;26.00;99.90
13326;DHT22;6732;51.044;3.746;2022-08-25T16:21:32;26.00;99.90
13326;DHT22;6732;51.044;3.746;2022-08-25T16:24:01;26.00;99.90
13326;DHT22;6732;51.044;3.746;2022-08-25T16:26:28;26.00;99.90
13326;DHT22;6732;51.044;3.746;2022-08-25T16:28:54;26.00;99.90
13326;DHT22;6732;51.044;3.746;2022-08-25T16:31:20;25.90;99.90
13326;DHT22;6732;51.044;3.746;2022-08-25T16:33:47;25.90;99.90
13326;DHT22;6732;51.044;3.746;2022-08-25T16:36:25;25.90;99.90
13326;DHT22;6732;51.044;3.746;2022-08-25T16:38:51;25.90;99.90
13326;DHT22;6732;51.044;3.746;2022-08-25T16:41:21;25.90;99.90
13326;DHT22;6732;51.044;3.746;2022-08-25T16:43:47;25.90;99.90
13326;DHT22;6732;51.044;3.746;2022-08-25T16:46:15;25.90;99.90
13326;DHT22;6732;51.044;3.746;2022-08-25T16:48:42;25.80;99.90
13326;DHT22;6732;51.044;3.746;2022-08-25T16:51:13;25.80;99.90
13326;DHT22;6732;51.044;3.746;2022-08-25T16:53:40;25.80;99.90
13326;DHT22;6732;51.044;3.746;2022-08-25T16:56:25;25.80;99.90
13326;DHT22;6732;51.044;3.746;2022-08-25T16:58:53;25.80;99.90
13326;DHT22;6732;51.044;3.746;2022-08-25T17:01:21;25.80;99.90
13326;DHT22;6732;51.044;3.746;2022-08-25T17:03:49;25.70;99.90
13326;DHT22;6732;51.044;3.746;2022-08-25T17:06:16;25.70;99.90
13326;DHT22;6732;51.044;3.746;2022-08-25T17:08:41;25.70;99.90
13326;DHT22;6732;51.044;3.746;2022-08-25T17:11:14;25.60;99.90
13326;DHT22;6732;51.044;3.746;2022-08-25T17:13:49;25.60;99.90
13326;DHT22;6732;51.044;3.746;2022-08-25T17:16:17;25.60;99.90
13326;DHT22;6732;51.044;3.746;2022-08-25T17:18:46;25.60;99.90
13326;DHT22;6732;51.044;3.746;2022-08-25T17:21:14;25.60;99.90
13326;DHT22;6732;51.044;3.746;2022-08-25T17:23:42;25.60;99.90
13326;DHT22;6732;51.044;3.746;2022-08-25T17:26:11;25.50;99.90
13326;DHT22;6732;51.044;3.746;2022-08-25T17:28:37;25.50;99.90
13326;DHT22;6732;51.044;3.746;2022-08-25T17:31:06;25.50;99.90
13326;DHT22;6732;51.044;3.746;2022-08-25T17:33:33;25.50;99.90
13326;DHT22;6732;51.044;3.746;2022-08-25T17:35:59;25.50;99.90
13326;DHT22;6732;51.044;3.746;2022-08-25T17:38:26;25.40;99.90
13326;DHT22;6732;51.044;3.746;2022-08-25T17:40:58;25.40;99.90
13326;DHT22;6732;51.044;3.746;2022-08-25T17:43:24;25.30;99.90
13326;DHT22;6732;51.044;3.746;2022-08-25T17:45:52;25.30;99.90
13326;DHT22;6732;51.044;3.746;2022-08-25T17:48:19;25.30;99.90
13326;DHT22;6732;51.044;3.746;2022-08-25T17:50:45;25.20;99.90
13326;DHT22;6732;51.044;3.746;2022-08-25T17:53:12;25.20;99.90
13326;DHT22;6732;51.044;3.746;2022-08-25T17:55:40;25.20;99.90
13326;DHT22;6732;51.044;3.746;2022-08-25T17:58:07;25.20;99.90
13326;DHT22;6732;51.044;3.746;2022-08-25T18:00:34;25.10;99.90
13326;DHT22;6732;51.044;3.746;2022-08-25T18:03:02;25.10;99.90
13326;DHT22;6732;51.044;3.746;2022-08-25T18:05:30;25.10;99.90
13326;DHT22;6732;51.044;3.746;2022-08-25T18:07:56;25.00;99.90
13326;DHT22;6732;51.044;3.746;2022-08-25T18:10:22;25.00;99.90
13326;DHT22;6732;51.044;3.746;2022-08-25T18:12:49;25.00;99.90
13326;DHT22;6732;51.044;3.746;2022-08-25T18:15:15;25.00;99.90